logo
Rechercher aéroport 
image banner adimage banner adimage banner ad
image banner ad

SDC9 - Tocantinopolis

Situé à Tocantinopolis, Brazil

ICAO - SDC9, IATA -

Données fournies par Airmate  

Information générale

Coordonnées: S6°20'2" W47°28'22"
Élévation : 790 feet MSL.
Variation magnétique : -21.197224323° East
Voir autres Aéroports à Tocatins

Données opérationnelles

Special qualification required
Heure actuelle UTC:
Heure actuelle locale:
Météo à : - ( 0 km )
METAR: TJBQ 152050Z 07013G16KT 10SM CLR 31/22 A2998
Voir NOTAMs / SUP AIP / TFR affectant cet aéroport [VIEW]
Fréquences de communication: [VIEW]

Pistes:

Identifiant RWYQFULongueur (ft)Largeur (ft)SurfaceLDA (ft)
09360975ASPH
27360975ASPH

Coordonnées de l'aéroport

Adresse: Tocantinopolis Brazil

Vue satellite de SDC9